Terminal Aerodrome Forecast
Issued by NWS

Home | Current Version | Previous Version | Text Only | Print | Product List | Glossary Off
Versions: 1 2 3 4 5 6 7 8 9 10 11 12 13 14 15 16 17 18 19 20 21

727
FTUS43 KICT 142348
TAFRSL
TAF
KRSL 142348Z 1500/1524 23007KT P6SM BKN200
     FM150300 24008KT P6SM VCSH BKN080
     FM150700 32010KT 4SM -SN SCT009 OVC025
      TEMPO 1507/1510 1SM -SN BR OVC009
     FM151000 01013KT P6SM VCSH OVC050
     FM151200 01016G24KT P6SM OVC080=

USA.gov is the U.S. government's official web portal to all federal, state and local government web resources and services.